Terminal Aerodrome Forecast
Issued by NWS

Home | Current Version | Previous Version | Text Only | Print | Product List | Glossary On
Versions: 1 2 3 4 5 6 7 8 9 10 11 12 13 14 15 16 17 18 19 20 21 22 23
000
FTUS42 KFFC 021120
TAFPDK
TAF
KPDK 021120Z 0212/0312 30005KT P6SM SCT015 SCT030
      TEMPO 0212/0216 SCT015 BKN030
     FM021600 30005KT P6SM VCSH SCT035 BKN050 PROB30 0221/0224 6SM
      TSRA BKN035CB
     FM030200 00000KT P6SM FEW040 SCT080 SCT250
     FM030900 VRB03KT 5SM BR SCT005 SCT250=

USA.gov is the U.S. government's official web portal to all federal, state and local government web resources and services.